Here is the Quick Look data you requested

The Data originates at the National Weather Service, and is made available here by the UAlbany Department of Atmospheric and Environmental Sciences

Surface Observations

KDOV 220556Z AUTO 30004KT 10SM SCT170 27/21 A2988 RMK AO2 SLP121 T02740207
 10329 20269 53004 $=
KGED 220554Z AUTO 25003KT 10SM CLR 29/26 A2988 RMK AO2 SLP118 T02890256 10339
 20289 53003=
KILG 220551Z AUTO 36004KT 10SM SCT070 27/23 A2988 RMK AO2 SLP118 60007
 T02670228 10322 20250 53005 $=